Share

Boulogne, France

France nord pas de calais (INORDPAS9) Elev 98 ft | 50.63 °N, 1.59 °E | Change Station

Current weather conditions updated 4 minutes ago

Scattered Clouds
Scattered Clouds
50.0 °F
Feels Like 50.0 °F
N
0.0
Wind Variable Wind from WSW
Gusts 3.8 mph
Sunrise 6:53 AM
Sunset 8:53 PM
Moon Waning Gibbous

Today is forecast to be Much Cooler than yesterday.

Pressure 30.01 in
Visibility 6.2 miles
Clouds Few 3000 ft
Scattered Clouds 3700 ft
Dew Point 41 °F
Humidity 69%
Rainfall 0.00 in
Snow Depth Not available.
UV 0 out of 16
Pollen Not available.
Air Quality Not available.
Flu Activity Not available.
METAR LFAT 180300Z AUTO 35008KT 9999 FEW030 SCT037 09/06 Q1016

More Conditions Fewer Conditions

Pressure 30.01 in
Visibility 6.2 miles
Clouds Few 3000 ft
Scattered Clouds 3700 ft
Dew Point 41 °F
Humidity 69%
Rainfall 0.00 in
Snow Depth Not available.
UV 0 out of 16
Pollen Not available.
Air Quality Not available.
Flu Activity Not available.
METAR LFAT 180300Z AUTO 35008KT 9999 FEW030 SCT037 09/06 Q1016

More Conditions Fewer Conditions

10-Day Forecast

Almanac

Astronomy

Apr. 18, 2014 Rise Set
Actual Time 6:53 AM CEST 8:53 PM CEST
Civil Twilight 6:18 AM CEST 9:28 PM CEST
Nautical Twilight 5:34 AM CEST 10:12 PM CEST
Astronomical Twilight 4:45 AM CEST 11:02 PM CEST
Moon No Moon Rise 8:48 AM CEST
Length of Visible Light 15h 10m
Length of Day
13h 59m
Tomorrow will be 3m 40s longer.
Waning Gibbous, 91% of the Moon is Illuminated
Apr 17
Waning Gibbous
Apr 22
Last Quarter
Apr 29
New
May 6
First Quarter
May 14
Full

Yesterday's Extremes

Country Highs Country Lows

Community

  • SUNRISE THROUGH THE TREES.
    SUNRISE THROUGH THE TREES.
  • Dog Wood Blossoms
    Dog Wood Blossoms
  • Morning Light
    Morning Light
  • New Day
    New Day
  • Lake Michigan Sunrise
    Lake Michigan Sunrise

WunderPhotos

Upload Photos

1,702,234 photos uploaded!

WunderBlogs® & News

Nearby

Snow Depth

Not available.

Coastal Water Temperatures

Place Temperature
No Stations Reporting

Earthquake Activity

City Distance Mag. Time & Date
No recent earthquake activity has been reported nearby.
Minimum magnitude displayed is 2.5.

Nearby Weather Stations

Station Location Temp. Windchill Dew Point Humidity Wind Precip. Elev Updated Type
France nord pas de calais, Neufchatel-Hardelot 50.0 °F - 41 °F 69% WSW  at  0.0 mph 0.04 in / hr 98 ft 5:01 AM CEST Normal
Impasse du Loup, Wismes 47.0 °F 47 °F 40 °F 76% NNW  at  1.4 mph 0.00 in / hr 505 ft 5:04 AM CEST Normal

Show More Stations Show Fewer Stations

What do you think?

We're not finished. Please let us know what you like, what you don't like, and what you are still missing.